sensor_id;sensor_type;location;lat;lon;timestamp;pressure;altitude;pressure_sealevel;temperature;humidity
48810;BME280;40070;47.322;18.784;2023-04-06T00:00:28;1005.40;;;3.25;47.72
48810;BME280;40070;47.322;18.784;2023-04-06T00:02:29;1005.39;;;3.28;47.92
48810;BME280;40070;47.322;18.784;2023-04-06T00:04:30;1005.38;;;3.18;47.52
48810;BME280;40070;47.322;18.784;2023-04-06T00:06:31;1005.36;;;2.89;48.12
48810;BME280;40070;47.322;18.784;2023-04-06T00:08:32;1005.38;;;3.13;47.58
48810;BME280;40070;47.322;18.784;2023-04-06T00:10:33;1005.37;;;3.32;48.13
48810;BME280;40070;47.322;18.784;2023-04-06T00:12:34;1005.36;;;3.22;47.55
48810;BME280;40070;47.322;18.784;2023-04-06T00:14:35;1005.31;;;3.24;47.64
48810;BME280;40070;47.322;18.784;2023-04-06T00:16:36;1005.31;;;3.42;47.82
48810;BME280;40070;47.322;18.784;2023-04-06T00:18:37;1005.27;;;3.06;48.48
48810;BME280;40070;47.322;18.784;2023-04-06T00:20:38;1005.24;;;3.33;47.76
48810;BME280;40070;47.322;18.784;2023-04-06T00:22:39;1005.23;;;3.47;47.24
48810;BME280;40070;47.322;18.784;2023-04-06T00:24:40;1005.26;;;3.56;47.22
48810;BME280;40070;47.322;18.784;2023-04-06T00:26:41;1005.25;;;3.57;47.32
48810;BME280;40070;47.322;18.784;2023-04-06T00:28:42;1005.23;;;3.06;48.79
48810;BME280;40070;47.322;18.784;2023-04-06T00:30:43;1005.15;;;3.16;48.58
48810;BME280;40070;47.322;18.784;2023-04-06T00:32:44;1005.16;;;2.93;49.03
48810;BME280;40070;47.322;18.784;2023-04-06T00:34:45;1005.16;;;2.93;49.32
48810;BME280;40070;47.322;18.784;2023-04-06T00:36:46;1005.16;;;2.48;50.39
48810;BME280;40070;47.322;18.784;2023-04-06T00:38:47;1005.10;;;2.48;50.26
48810;BME280;40070;47.322;18.784;2023-04-06T00:40:48;1005.09;;;2.51;50.04
48810;BME280;40070;47.322;18.784;2023-04-06T00:42:49;1005.05;;;2.26;50.74
48810;BME280;40070;47.322;18.784;2023-04-06T00:44:50;1005.04;;;2.43;50.76
48810;BME280;40070;47.322;18.784;2023-04-06T00:46:51;1005.05;;;2.42;51.23
48810;BME280;40070;47.322;18.784;2023-04-06T00:48:52;1005.03;;;2.10;52.26
48810;BME280;40070;47.322;18.784;2023-04-06T00:50:52;1005.00;;;2.47;51.04
48810;BME280;40070;47.322;18.784;2023-04-06T00:52:54;1004.96;;;2.71;50.37
48810;BME280;40070;47.322;18.784;2023-04-06T00:54:55;1005.01;;;1.97;50.80
48810;BME280;40070;47.322;18.784;2023-04-06T00:56:56;1004.96;;;2.29;50.08
48810;BME280;40070;47.322;18.784;2023-04-06T00:58:57;1004.96;;;2.53;49.91
48810;BME280;40070;47.322;18.784;2023-04-06T01:00:58;1004.98;;;2.61;49.91
48810;BME280;40070;47.322;18.784;2023-04-06T01:02:59;1004.99;;;2.40;50.45
48810;BME280;40070;47.322;18.784;2023-04-06T01:05:00;1005.01;;;2.51;50.37
48810;BME280;40070;47.322;18.784;2023-04-06T01:07:01;1005.01;;;2.84;49.58
48810;BME280;40070;47.322;18.784;2023-04-06T01:09:02;1005.01;;;2.83;49.28
48810;BME280;40070;47.322;18.784;2023-04-06T01:11:03;1004.98;;;2.65;49.39
48810;BME280;40070;47.322;18.784;2023-04-06T01:13:04;1005.01;;;2.80;49.21
48810;BME280;40070;47.322;18.784;2023-04-06T01:15:05;1005.02;;;2.83;49.39
48810;BME280;40070;47.322;18.784;2023-04-06T01:17:06;1005.02;;;2.98;48.55
48810;BME280;40070;47.322;18.784;2023-04-06T01:19:08;1005.03;;;2.77;49.34
48810;BME280;40070;47.322;18.784;2023-04-06T01:21:09;1005.04;;;2.77;49.89
48810;BME280;40070;47.322;18.784;2023-04-06T01:23:10;1005.01;;;2.75;49.84
48810;BME280;40070;47.322;18.784;2023-04-06T01:25:11;1005.03;;;2.52;49.65
48810;BME280;40070;47.322;18.784;2023-04-06T01:27:12;1005.02;;;2.17;49.91
48810;BME280;40070;47.322;18.784;2023-04-06T01:29:13;1004.98;;;2.27;49.76
48810;BME280;40070;47.322;18.784;2023-04-06T01:31:14;1004.99;;;2.32;50.70
48810;BME280;40070;47.322;18.784;2023-04-06T01:33:15;1005.03;;;2.32;51.12
48810;BME280;40070;47.322;18.784;2023-04-06T01:35:17;1005.00;;;2.42;51.36
48810;BME280;40070;47.322;18.784;2023-04-06T01:37:18;1004.96;;;2.46;51.15
48810;BME280;40070;47.322;18.784;2023-04-06T01:39:19;1004.94;;;2.46;50.92
48810;BME280;40070;47.322;18.784;2023-04-06T01:41:20;1004.99;;;2.52;50.55
48810;BME280;40070;47.322;18.784;2023-04-06T01:43:21;1004.96;;;2.54;50.19
48810;BME280;40070;47.322;18.784;2023-04-06T01:45:22;1004.98;;;2.46;50.76
48810;BME280;40070;47.322;18.784;2023-04-06T01:47:23;1004.97;;;2.43;50.94
48810;BME280;40070;47.322;18.784;2023-04-06T01:49:24;1004.90;;;2.25;50.14
48810;BME280;40070;47.322;18.784;2023-04-06T01:51:25;1004.88;;;2.30;49.36
48810;BME280;40070;47.322;18.784;2023-04-06T01:53:26;1004.89;;;2.43;49.25
48810;BME280;40070;47.322;18.784;2023-04-06T01:55:27;1004.85;;;2.53;49.94
48810;BME280;40070;47.322;18.784;2023-04-06T01:57:28;1004.86;;;2.61;49.81
48810;BME280;40070;47.322;18.784;2023-04-06T01:59:29;1004.87;;;2.36;50.43
48810;BME280;40070;47.322;18.784;2023-04-06T02:01:29;1004.84;;;2.27;50.90
48810;BME280;40070;47.322;18.784;2023-04-06T02:03:30;1004.86;;;2.21;51.24
48810;BME280;40070;47.322;18.784;2023-04-06T02:05:31;1004.85;;;2.28;50.81
48810;BME280;40070;47.322;18.784;2023-04-06T02:07:33;1004.86;;;2.30;50.33
48810;BME280;40070;47.322;18.784;2023-04-06T02:09:33;1004.92;;;2.08;51.43
48810;BME280;40070;47.322;18.784;2023-04-06T02:11:35;1004.88;;;2.12;50.47
48810;BME280;40070;47.322;18.784;2023-04-06T02:13:36;1004.88;;;2.03;50.54
48810;BME280;40070;47.322;18.784;2023-04-06T02:15:37;1004.85;;;2.20;50.92
48810;BME280;40070;47.322;18.784;2023-04-06T02:17:38;1004.86;;;2.22;50.56
48810;BME280;40070;47.322;18.784;2023-04-06T02:19:39;1004.82;;;2.22;50.92
48810;BME280;40070;47.322;18.784;2023-04-06T02:21:40;1004.81;;;2.16;51.27
48810;BME280;40070;47.322;18.784;2023-04-06T02:23:41;1004.80;;;2.18;50.99
48810;BME280;40070;47.322;18.784;2023-04-06T02:25:42;1004.78;;;2.21;50.51
48810;BME280;40070;47.322;18.784;2023-04-06T02:27:43;1004.72;;;2.45;50.08
48810;BME280;40070;47.322;18.784;2023-04-06T02:29:44;1004.79;;;2.07;51.35
48810;BME280;40070;47.322;18.784;2023-04-06T02:31:45;1004.78;;;2.04;50.90
48810;BME280;40070;47.322;18.784;2023-04-06T02:33:46;1004.77;;;2.03;51.37
48810;BME280;40070;47.322;18.784;2023-04-06T02:35:47;1004.77;;;1.82;52.07
48810;BME280;40070;47.322;18.784;2023-04-06T02:37:47;1004.75;;;1.87;52.01
48810;BME280;40070;47.322;18.784;2023-04-06T02:39:48;1004.76;;;1.89;52.08
48810;BME280;40070;47.322;18.784;2023-04-06T02:41:49;1004.73;;;1.91;52.09
48810;BME280;40070;47.322;18.784;2023-04-06T02:43:50;1004.71;;;1.88;52.46
48810;BME280;40070;47.322;18.784;2023-04-06T02:45:51;1004.74;;;1.61;51.59
48810;BME280;40070;47.322;18.784;2023-04-06T02:47:52;1004.76;;;1.49;51.47
48810;BME280;40070;47.322;18.784;2023-04-06T02:49:53;1004.73;;;1.44;51.30
48810;BME280;40070;47.322;18.784;2023-04-06T02:51:54;1004.74;;;1.43;51.47
48810;BME280;40070;47.322;18.784;2023-04-06T02:53:55;1004.67;;;1.53;51.03
48810;BME280;40070;47.322;18.784;2023-04-06T02:55:56;1004.65;;;1.52;50.88
48810;BME280;40070;47.322;18.784;2023-04-06T02:57:57;1004.65;;;1.50;50.92
48810;BME280;40070;47.322;18.784;2023-04-06T02:59:58;1004.62;;;1.36;51.60
48810;BME280;40070;47.322;18.784;2023-04-06T03:01:58;1004.68;;;1.45;51.21
48810;BME280;40070;47.322;18.784;2023-04-06T03:03:59;1004.66;;;1.61;51.35
48810;BME280;40070;47.322;18.784;2023-04-06T03:06:00;1004.67;;;1.59;51.10
48810;BME280;40070;47.322;18.784;2023-04-06T03:08:01;1004.65;;;1.61;50.82
48810;BME280;40070;47.322;18.784;2023-04-06T03:10:02;1004.56;;;1.90;51.12
48810;BME280;40070;47.322;18.784;2023-04-06T03:12:03;1004.54;;;2.18;50.65
48810;BME280;40070;47.322;18.784;2023-04-06T03:14:04;1004.55;;;2.19;50.92
48810;BME280;40070;47.322;18.784;2023-04-06T03:16:06;1004.53;;;2.15;50.79
48810;BME280;40070;47.322;18.784;2023-04-06T03:18:07;1004.58;;;1.93;51.04
48810;BME280;40070;47.322;18.784;2023-04-06T03:20:08;1004.62;;;1.73;51.44
48810;BME280;40070;47.322;18.784;2023-04-06T03:22:09;1004.63;;;1.78;51.26
48810;BME280;40070;47.322;18.784;2023-04-06T03:24:10;1004.63;;;1.60;51.91
48810;BME280;40070;47.322;18.784;2023-04-06T03:26:10;1004.63;;;1.59;51.82
48810;BME280;40070;47.322;18.784;2023-04-06T03:28:11;1004.63;;;1.48;52.07
48810;BME280;40070;47.322;18.784;2023-04-06T03:30:12;1004.64;;;1.49;52.25
48810;BME280;40070;47.322;18.784;2023-04-06T03:32:13;1004.62;;;1.28;53.29
48810;BME280;40070;47.322;18.784;2023-04-06T03:34:14;1004.65;;;1.23;53.25
48810;BME280;40070;47.322;18.784;2023-04-06T03:36:15;1004.64;;;1.23;52.82
48810;BME280;40070;47.322;18.784;2023-04-06T03:38:16;1004.65;;;1.06;53.66
48810;BME280;40070;47.322;18.784;2023-04-06T03:40:17;1004.60;;;1.27;53.10
48810;BME280;40070;47.322;18.784;2023-04-06T03:42:18;1004.65;;;1.30;53.21
48810;BME280;40070;47.322;18.784;2023-04-06T03:44:19;1004.66;;;1.43;52.99
48810;BME280;40070;47.322;18.784;2023-04-06T03:46:20;1004.70;;;1.54;52.53
48810;BME280;40070;47.322;18.784;2023-04-06T03:48:21;1004.68;;;1.51;51.92
48810;BME280;40070;47.322;18.784;2023-04-06T03:50:22;1004.74;;;1.51;52.01
48810;BME280;40070;47.322;18.784;2023-04-06T03:52:23;1004.72;;;1.34;52.37
48810;BME280;40070;47.322;18.784;2023-04-06T03:54:24;1004.75;;;1.13;52.88
48810;BME280;40070;47.322;18.784;2023-04-06T03:56:24;1004.75;;;1.39;52.54
48810;BME280;40070;47.322;18.784;2023-04-06T03:58:25;1004.72;;;1.56;52.15
48810;BME280;40070;47.322;18.784;2023-04-06T04:00:26;1004.75;;;1.35;52.41
48810;BME280;40070;47.322;18.784;2023-04-06T04:02:27;1004.71;;;1.58;51.73
48810;BME280;40070;47.322;18.784;2023-04-06T04:04:28;1004.73;;;1.58;51.69
48810;BME280;40070;47.322;18.784;2023-04-06T04:06:29;1004.69;;;1.39;52.41
48810;BME280;40070;47.322;18.784;2023-04-06T04:08:30;1004.71;;;1.33;52.86
48810;BME280;40070;47.322;18.784;2023-04-06T04:10:31;1004.74;;;1.28;53.23
48810;BME280;40070;47.322;18.784;2023-04-06T04:12:32;1004.81;;;0.81;53.95
48810;BME280;40070;47.322;18.784;2023-04-06T04:14:33;1004.78;;;1.10;53.37
48810;BME280;40070;47.322;18.784;2023-04-06T04:16:34;1004.79;;;1.00;53.60
48810;BME280;40070;47.322;18.784;2023-04-06T04:18:35;1004.71;;;0.78;53.75
48810;BME280;40070;47.322;18.784;2023-04-06T04:20:36;1004.69;;;1.00;53.61
48810;BME280;40070;47.322;18.784;2023-04-06T04:22:37;1004.69;;;1.20;53.03
48810;BME280;40070;47.322;18.784;2023-04-06T04:24:38;1004.68;;;1.37;52.45
48810;BME280;40070;47.322;18.784;2023-04-06T04:26:39;1004.67;;;1.20;53.16
48810;BME280;40070;47.322;18.784;2023-04-06T04:28:40;1004.72;;;1.42;52.85
48810;BME280;40070;47.322;18.784;2023-04-06T04:30:41;1004.71;;;1.35;53.16
48810;BME280;40070;47.322;18.784;2023-04-06T04:32:41;1004.72;;;1.15;53.81
48810;BME280;40070;47.322;18.784;2023-04-06T04:34:42;1004.77;;;1.44;53.51
48810;BME280;40070;47.322;18.784;2023-04-06T04:36:43;1004.83;;;0.84;54.51
48810;BME280;40070;47.322;18.784;2023-04-06T04:38:44;1004.81;;;0.66;55.33
48810;BME280;40070;47.322;18.784;2023-04-06T04:40:45;1004.84;;;1.07;54.73
48810;BME280;40070;47.322;18.784;2023-04-06T04:42:46;1004.83;;;1.12;54.25
48810;BME280;40070;47.322;18.784;2023-04-06T04:44:47;1004.85;;;1.18;54.00
48810;BME280;40070;47.322;18.784;2023-04-06T04:46:48;1004.84;;;1.31;54.12
48810;BME280;40070;47.322;18.784;2023-04-06T04:48:49;1004.81;;;1.50;52.91
48810;BME280;40070;47.322;18.784;2023-04-06T04:50:50;1004.80;;;1.38;53.23
48810;BME280;40070;47.322;18.784;2023-04-06T04:52:51;1004.77;;;1.12;54.61
48810;BME280;40070;47.322;18.784;2023-04-06T04:54:52;1004.75;;;1.34;54.06
48810;BME280;40070;47.322;18.784;2023-04-06T04:56:52;1004.77;;;1.35;54.18
48810;BME280;40070;47.322;18.784;2023-04-06T04:58:53;1004.75;;;1.53;53.83
48810;BME280;40070;47.322;18.784;2023-04-06T05:00:54;1004.71;;;1.55;53.60
48810;BME280;40070;47.322;18.784;2023-04-06T05:02:55;1004.67;;;1.87;52.69
48810;BME280;40070;47.322;18.784;2023-04-06T05:04:56;1004.67;;;1.61;53.05
48810;BME280;40070;47.322;18.784;2023-04-06T05:07:04;1004.62;;;1.72;52.92
48810;BME280;40070;47.322;18.784;2023-04-06T05:09:05;1004.60;;;1.50;52.69
48810;BME280;40070;47.322;18.784;2023-04-06T05:11:05;1004.52;;;1.89;51.84
48810;BME280;40070;47.322;18.784;2023-04-06T05:13:07;1004.43;;;1.98;51.16
48810;BME280;40070;47.322;18.784;2023-04-06T05:15:08;1004.41;;;1.89;50.90
48810;BME280;40070;47.322;18.784;2023-04-06T05:17:09;1004.43;;;1.91;50.95
48810;BME280;40070;47.322;18.784;2023-04-06T05:19:10;1004.40;;;2.14;50.66
48810;BME280;40070;47.322;18.784;2023-04-06T05:21:11;1004.40;;;1.93;51.08
48810;BME280;40070;47.322;18.784;2023-04-06T05:23:12;1004.40;;;1.88;51.42
48810;BME280;40070;47.322;18.784;2023-04-06T05:25:13;1004.41;;;2.08;50.84
48810;BME280;40070;47.322;18.784;2023-04-06T05:27:14;1004.41;;;1.97;51.19
48810;BME280;40070;47.322;18.784;2023-04-06T05:29:15;1004.40;;;1.94;51.10
48810;BME280;40070;47.322;18.784;2023-04-06T05:31:16;1004.39;;;2.01;50.94
48810;BME280;40070;47.322;18.784;2023-04-06T05:33:17;1004.38;;;2.10;50.87
48810;BME280;40070;47.322;18.784;2023-04-06T05:35:18;1004.37;;;2.13;50.48
48810;BME280;40070;47.322;18.784;2023-04-06T05:37:19;1004.34;;;2.29;49.95
48810;BME280;40070;47.322;18.784;2023-04-06T05:39:20;1004.30;;;2.28;49.74
48810;BME280;40070;47.322;18.784;2023-04-06T05:41:21;1004.31;;;2.38;49.55
48810;BME280;40070;47.322;18.784;2023-04-06T05:43:22;1004.32;;;2.25;49.65
48810;BME280;40070;47.322;18.784;2023-04-06T05:45:23;1004.29;;;2.62;49.00
48810;BME280;40070;47.322;18.784;2023-04-06T05:47:24;1004.27;;;2.63;49.04
48810;BME280;40070;47.322;18.784;2023-04-06T05:49:25;1004.30;;;2.82;48.68
48810;BME280;40070;47.322;18.784;2023-04-06T05:51:26;1004.20;;;3.06;48.07
48810;BME280;40070;47.322;18.784;2023-04-06T05:53:26;1004.10;;;3.04;47.72
48810;BME280;40070;47.322;18.784;2023-04-06T05:55:27;1004.05;;;2.76;48.29
48810;BME280;40070;47.322;18.784;2023-04-06T05:57:28;1004.14;;;3.05;48.09
48810;BME280;40070;47.322;18.784;2023-04-06T05:59:32;1004.16;;;3.02;48.18
48810;BME280;40070;47.322;18.784;2023-04-06T06:01:33;1004.09;;;3.11;48.20
48810;BME280;40070;47.322;18.784;2023-04-06T06:03:34;1004.05;;;2.97;48.33
48810;BME280;40070;47.322;18.784;2023-04-06T06:05:35;1004.04;;;2.89;48.54
48810;BME280;40070;47.322;18.784;2023-04-06T06:07:36;1004.06;;;3.15;48.17
48810;BME280;40070;47.322;18.784;2023-04-06T06:09:37;1004.01;;;3.48;47.32
48810;BME280;40070;47.322;18.784;2023-04-06T06:11:38;1003.99;;;3.53;47.16
48810;BME280;40070;47.322;18.784;2023-04-06T06:13:40;1003.96;;;3.32;47.64
48810;BME280;40070;47.322;18.784;2023-04-06T06:15:41;1003.91;;;3.60;46.51
48810;BME280;40070;47.322;18.784;2023-04-06T06:17:42;1003.92;;;3.35;46.77
48810;BME280;40070;47.322;18.784;2023-04-06T06:19:43;1003.94;;;3.34;46.68
48810;BME280;40070;47.322;18.784;2023-04-06T06:21:44;1003.92;;;3.46;46.13
48810;BME280;40070;47.322;18.784;2023-04-06T06:23:45;1003.93;;;3.07;46.96
48810;BME280;40070;47.322;18.784;2023-04-06T06:25:46;1003.89;;;3.23;47.13
48810;BME280;40070;47.322;18.784;2023-04-06T06:27:47;1003.89;;;3.64;46.63
48810;BME280;40070;47.322;18.784;2023-04-06T06:29:48;1003.80;;;3.52;46.55
48810;BME280;40070;47.322;18.784;2023-04-06T06:31:49;1003.83;;;3.49;46.33
48810;BME280;40070;47.322;18.784;2023-04-06T06:33:49;1003.80;;;3.71;45.52
48810;BME280;40070;47.322;18.784;2023-04-06T06:35:50;1003.80;;;3.54;45.91
48810;BME280;40070;47.322;18.784;2023-04-06T06:37:51;1003.79;;;3.45;46.29
48810;BME280;40070;47.322;18.784;2023-04-06T06:39:52;1003.81;;;3.37;46.43
48810;BME280;40070;47.322;18.784;2023-04-06T06:41:53;1003.82;;;3.64;45.54
48810;BME280;40070;47.322;18.784;2023-04-06T06:43:54;1003.82;;;3.83;45.70
48810;BME280;40070;47.322;18.784;2023-04-06T06:45:55;1003.80;;;3.67;45.86
48810;BME280;40070;47.322;18.784;2023-04-06T06:47:56;1003.76;;;3.68;45.72
48810;BME280;40070;47.322;18.784;2023-04-06T06:49:57;1003.78;;;3.71;45.08
48810;BME280;40070;47.322;18.784;2023-04-06T06:51:58;1003.75;;;3.56;45.62
48810;BME280;40070;47.322;18.784;2023-04-06T06:53:59;1003.75;;;3.43;45.89
48810;BME280;40070;47.322;18.784;2023-04-06T06:56:00;1003.75;;;3.54;46.02
48810;BME280;40070;47.322;18.784;2023-04-06T06:58:02;1003.70;;;3.55;45.43
48810;BME280;40070;47.322;18.784;2023-04-06T07:00:03;1003.74;;;3.42;45.82
48810;BME280;40070;47.322;18.784;2023-04-06T07:02:04;1003.72;;;3.41;45.88
48810;BME280;40070;47.322;18.784;2023-04-06T07:04:05;1003.72;;;3.36;45.81
48810;BME280;40070;47.322;18.784;2023-04-06T07:06:06;1003.74;;;3.64;46.08
48810;BME280;40070;47.322;18.784;2023-04-06T07:08:07;1003.72;;;3.82;45.58
48810;BME280;40070;47.322;18.784;2023-04-06T07:10:08;1003.70;;;3.99;45.27
48810;BME280;40070;47.322;18.784;2023-04-06T07:12:09;1003.71;;;4.01;44.64
48810;BME280;40070;47.322;18.784;2023-04-06T07:14:10;1003.70;;;4.05;44.74
48810;BME280;40070;47.322;18.784;2023-04-06T07:16:11;1003.73;;;4.31;44.85
48810;BME280;40070;47.322;18.784;2023-04-06T07:18:12;1003.73;;;4.13;45.00
48810;BME280;40070;47.322;18.784;2023-04-06T07:20:13;1003.66;;;4.39;44.40
48810;BME280;40070;47.322;18.784;2023-04-06T07:22:14;1003.65;;;4.56;44.68
48810;BME280;40070;47.322;18.784;2023-04-06T07:24:15;1003.65;;;4.71;43.85
48810;BME280;40070;47.322;18.784;2023-04-06T07:26:16;1003.59;;;4.92;44.08
48810;BME280;40070;47.322;18.784;2023-04-06T07:28:17;1003.57;;;5.17;43.23
48810;BME280;40070;47.322;18.784;2023-04-06T07:30:18;1003.49;;;5.62;41.92
48810;BME280;40070;47.322;18.784;2023-04-06T07:32:18;1003.53;;;5.57;42.23
48810;BME280;40070;47.322;18.784;2023-04-06T07:34:20;1003.50;;;5.46;41.27
48810;BME280;40070;47.322;18.784;2023-04-06T07:36:21;1003.45;;;5.58;41.12
48810;BME280;40070;47.322;18.784;2023-04-06T07:38:21;1003.44;;;5.70;42.35
48810;BME280;40070;47.322;18.784;2023-04-06T07:40:23;1003.39;;;5.88;39.81
48810;BME280;40070;47.322;18.784;2023-04-06T07:42:23;1003.34;;;5.76;39.78
48810;BME280;40070;47.322;18.784;2023-04-06T07:44:24;1003.34;;;5.95;39.62
48810;BME280;40070;47.322;18.784;2023-04-06T07:46:25;1003.31;;;5.73;39.12
48810;BME280;40070;47.322;18.784;2023-04-06T07:48:26;1003.31;;;5.49;39.86
48810;BME280;40070;47.322;18.784;2023-04-06T07:50:27;1003.27;;;5.43;39.38
48810;BME280;40070;47.322;18.784;2023-04-06T07:52:28;1003.23;;;5.72;39.25
48810;BME280;40070;47.322;18.784;2023-04-06T07:54:29;1003.14;;;5.94;39.46
48810;BME280;40070;47.322;18.784;2023-04-06T07:56:30;1003.15;;;6.11;39.54
48810;BME280;40070;47.322;18.784;2023-04-06T07:58:31;1003.20;;;6.39;38.94
48810;BME280;40070;47.322;18.784;2023-04-06T08:00:32;1003.20;;;6.29;38.20
48810;BME280;40070;47.322;18.784;2023-04-06T08:02:33;1003.18;;;6.26;38.27
48810;BME280;40070;47.322;18.784;2023-04-06T08:04:34;1003.12;;;6.14;38.13
48810;BME280;40070;47.322;18.784;2023-04-06T08:06:36;1003.11;;;6.33;38.33
48810;BME280;40070;47.322;18.784;2023-04-06T08:08:37;1003.16;;;6.39;37.96
48810;BME280;40070;47.322;18.784;2023-04-06T08:10:37;1003.15;;;6.25;37.80
48810;BME280;40070;47.322;18.784;2023-04-06T08:12:38;1003.19;;;6.13;37.50
48810;BME280;40070;47.322;18.784;2023-04-06T08:14:39;1003.18;;;6.14;37.38
48810;BME280;40070;47.322;18.784;2023-04-06T08:16:40;1003.09;;;6.19;37.60
48810;BME280;40070;47.322;18.784;2023-04-06T08:18:41;1003.14;;;6.07;37.38
48810;BME280;40070;47.322;18.784;2023-04-06T08:20:42;1003.16;;;6.33;37.36
48810;BME280;40070;47.322;18.784;2023-04-06T08:22:43;1003.22;;;6.13;37.52
48810;BME280;40070;47.322;18.784;2023-04-06T08:24:44;1003.10;;;6.17;37.12
48810;BME280;40070;47.322;18.784;2023-04-06T08:26:45;1003.18;;;6.39;37.20
48810;BME280;40070;47.322;18.784;2023-04-06T08:28:46;1003.19;;;6.41;36.23
48810;BME280;40070;47.322;18.784;2023-04-06T08:30:47;1003.15;;;6.60;36.44
48810;BME280;40070;47.322;18.784;2023-04-06T08:32:48;1003.05;;;6.83;36.15
48810;BME280;40070;47.322;18.784;2023-04-06T08:34:49;1003.09;;;6.86;36.31
48810;BME280;40070;47.322;18.784;2023-04-06T08:36:50;1003.12;;;6.67;36.57
48810;BME280;40070;47.322;18.784;2023-04-06T08:38:51;1003.11;;;6.78;36.70
48810;BME280;40070;47.322;18.784;2023-04-06T08:40:52;1003.05;;;6.91;36.55
48810;BME280;40070;47.322;18.784;2023-04-06T08:42:54;1003.05;;;7.22;36.63
48810;BME280;40070;47.322;18.784;2023-04-06T08:44:55;1002.99;;;7.38;35.58
48810;BME280;40070;47.322;18.784;2023-04-06T08:46:56;1002.95;;;7.58;34.97
48810;BME280;40070;47.322;18.784;2023-04-06T08:48:59;1002.96;;;7.11;36.42
48810;BME280;40070;47.322;18.784;2023-04-06T08:51:01;1002.89;;;7.22;36.22
48810;BME280;40070;47.322;18.784;2023-04-06T08:53:02;1002.90;;;7.77;35.98
48810;BME280;40070;47.322;18.784;2023-04-06T08:55:03;1002.92;;;7.65;35.08
48810;BME280;40070;47.322;18.784;2023-04-06T08:57:05;1002.91;;;7.17;34.90
48810;BME280;40070;47.322;18.784;2023-04-06T08:59:06;1002.84;;;7.45;34.73
48810;BME280;40070;47.322;18.784;2023-04-06T09:01:08;1002.86;;;7.17;35.53
48810;BME280;40070;47.322;18.784;2023-04-06T09:03:10;1002.90;;;7.27;35.13
48810;BME280;40070;47.322;18.784;2023-04-06T09:05:13;1002.82;;;7.43;35.27
48810;BME280;40070;47.322;18.784;2023-04-06T09:07:15;1002.78;;;7.46;35.31
48810;BME280;40070;47.322;18.784;2023-04-06T09:09:16;1002.79;;;7.28;35.08
48810;BME280;40070;47.322;18.784;2023-04-06T09:11:17;1002.79;;;7.14;35.49
48810;BME280;40070;47.322;18.784;2023-04-06T09:13:18;1002.71;;;7.19;35.50
48810;BME280;40070;47.322;18.784;2023-04-06T09:15:22;1002.72;;;7.23;35.86
48810;BME280;40070;47.322;18.784;2023-04-06T09:17:23;1002.72;;;7.32;35.84
48810;BME280;40070;47.322;18.784;2023-04-06T09:19:25;1002.65;;;7.63;35.54
48810;BME280;40070;47.322;18.784;2023-04-06T09:21:25;1002.67;;;7.94;34.89
48810;BME280;40070;47.322;18.784;2023-04-06T09:23:27;1002.62;;;7.95;34.18
48810;BME280;40070;47.322;18.784;2023-04-06T09:25:28;1002.62;;;8.30;33.65
48810;BME280;40070;47.322;18.784;2023-04-06T09:27:35;1002.62;;;7.97;34.64
48810;BME280;40070;47.322;18.784;2023-04-06T09:29:36;1002.66;;;7.75;34.43
48810;BME280;40070;47.322;18.784;2023-04-06T09:31:37;1002.56;;;7.84;34.22
48810;BME280;40070;47.322;18.784;2023-04-06T09:33:40;1002.57;;;7.89;34.36
48810;BME280;40070;47.322;18.784;2023-04-06T09:35:48;1002.57;;;7.95;34.58
48810;BME280;40070;47.322;18.784;2023-04-06T09:37:50;1002.54;;;8.19;33.92
48810;BME280;40070;47.322;18.784;2023-04-06T09:40:01;1002.45;;;8.27;33.63
48810;BME280;40070;47.322;18.784;2023-04-06T09:42:03;1002.48;;;8.23;33.70
48810;BME280;40070;47.322;18.784;2023-04-06T09:44:07;1002.44;;;8.76;34.01
48810;BME280;40070;47.322;18.784;2023-04-06T09:46:08;1002.41;;;8.56;33.13
48810;BME280;40070;47.322;18.784;2023-04-06T09:48:09;1002.39;;;8.65;32.75
48810;BME280;40070;47.322;18.784;2023-04-06T09:50:10;1002.38;;;8.74;33.68
48810;BME280;40070;47.322;18.784;2023-04-06T09:52:12;1002.35;;;8.73;32.68
48810;BME280;40070;47.322;18.784;2023-04-06T09:54:15;1002.32;;;8.88;32.11
48810;BME280;40070;47.322;18.784;2023-04-06T09:56:16;1002.27;;;9.17;32.46
48810;BME280;40070;47.322;18.784;2023-04-06T09:58:19;1002.24;;;9.16;32.12
48810;BME280;40070;47.322;18.784;2023-04-06T10:00:21;1002.30;;;8.64;32.04
48810;BME280;40070;47.322;18.784;2023-04-06T10:05:12;1002.32;;;8.50;33.57
48810;BME280;40070;47.322;18.784;2023-04-06T10:07:13;1002.25;;;8.95;32.76
48810;BME280;40070;47.322;18.784;2023-04-06T10:09:14;1002.24;;;8.79;32.72
48810;BME280;40070;47.322;18.784;2023-04-06T10:11:17;1002.19;;;8.52;32.33
48810;BME280;40070;47.322;18.784;2023-04-06T10:13:18;1002.16;;;8.64;32.74
48810;BME280;40070;47.322;18.784;2023-04-06T10:15:19;1002.19;;;8.77;32.96
48810;BME280;40070;47.322;18.784;2023-04-06T10:17:20;1002.10;;;8.69;33.08
48810;BME280;40070;47.322;18.784;2023-04-06T10:19:22;1002.13;;;8.71;32.67
48810;BME280;40070;47.322;18.784;2023-04-06T10:21:26;1002.11;;;8.67;32.89
48810;BME280;40070;47.322;18.784;2023-04-06T10:25:57;1002.08;;;8.62;33.34
48810;BME280;40070;47.322;18.784;2023-04-06T10:30:15;1002.03;;;8.79;32.72
48810;BME280;40070;47.322;18.784;2023-04-06T10:32:16;1002.00;;;8.89;32.66
48810;BME280;40070;47.322;18.784;2023-04-06T10:34:17;1001.98;;;9.22;32.67
48810;BME280;40070;47.322;18.784;2023-04-06T10:36:27;1001.98;;;9.27;31.55
48810;BME280;40070;47.322;18.784;2023-04-06T10:38:35;1001.91;;;9.43;31.55
48810;BME280;40070;47.322;18.784;2023-04-06T10:40:36;1001.96;;;9.39;31.70
48810;BME280;40070;47.322;18.784;2023-04-06T10:42:38;1001.90;;;9.66;31.11
48810;BME280;40070;47.322;18.784;2023-04-06T10:44:42;1001.89;;;9.63;31.48
48810;BME280;40070;47.322;18.784;2023-04-06T10:46:51;1001.78;;;9.61;31.02
48810;BME280;40070;47.322;18.784;2023-04-06T10:48:52;1001.95;;;9.50;31.21
48810;BME280;40070;47.322;18.784;2023-04-06T10:50:53;1001.90;;;9.51;30.87
48810;BME280;40070;47.322;18.784;2023-04-06T10:53:01;1001.86;;;9.51;31.37
48810;BME280;40070;47.322;18.784;2023-04-06T10:55:02;1001.78;;;9.81;31.66
48810;BME280;40070;47.322;18.784;2023-04-06T10:57:03;1001.80;;;9.93;30.04